createdAt,value
2018-05-08T00:01:49.005Z,35.68
2018-05-08T00:04:16.586Z,35.91
2018-05-08T00:06:44.179Z,36.05
2018-05-08T00:09:11.767Z,36.28
2018-05-08T00:11:39.280Z,36.50
2018-05-08T00:14:06.858Z,36.58
2018-05-08T00:16:34.392Z,36.55
2018-05-08T00:19:02.009Z,36.57
2018-05-08T00:21:29.590Z,36.59
2018-05-08T00:23:57.161Z,36.93
2018-05-08T00:26:24.729Z,37.02
2018-05-08T00:28:52.279Z,37.07
2018-05-08T00:31:19.840Z,37.18
2018-05-08T00:33:47.414Z,37.26
2018-05-08T00:36:15.016Z,37.34
2018-05-08T00:38:42.604Z,37.51
2018-05-08T00:41:10.246Z,37.53
2018-05-08T00:43:37.793Z,37.61
2018-05-08T00:46:05.394Z,37.73
2018-05-08T00:48:33.088Z,37.92
2018-05-08T00:51:00.705Z,38.07
2018-05-08T00:53:28.271Z,38.09
2018-05-08T00:55:55.829Z,38.26
2018-05-08T00:58:23.399Z,38.45
2018-05-08T01:00:50.952Z,38.45
2018-05-08T01:03:18.501Z,38.25
2018-05-08T01:05:46.080Z,38.45
2018-05-08T01:08:13.642Z,38.45
2018-05-08T01:10:41.216Z,38.59
2018-05-08T01:13:08.766Z,38.68
2018-05-08T01:15:36.712Z,38.70
2018-05-08T01:18:04.490Z,38.89
2018-05-08T01:20:32.039Z,39.25
2018-05-08T01:22:59.636Z,39.40
2018-05-08T01:25:28.215Z,39.50
2018-05-08T01:27:55.763Z,39.64
2018-05-08T01:30:23.358Z,39.76
2018-05-08T01:32:50.939Z,39.62
2018-05-08T01:35:18.545Z,39.84
2018-05-08T01:37:46.688Z,39.97
2018-05-08T01:40:14.276Z,39.96
2018-05-08T01:42:41.859Z,40.08
2018-05-08T01:45:09.482Z,40.23
2018-05-08T01:47:37.036Z,40.24
2018-05-08T01:50:04.603Z,40.43
2018-05-08T01:52:32.153Z,40.55
2018-05-08T01:54:59.708Z,40.61
2018-05-08T01:57:27.272Z,40.65
2018-05-08T01:59:54.865Z,40.88
2018-05-08T02:02:22.519Z,40.97
2018-05-08T02:04:50.044Z,41.24
2018-05-08T02:07:17.620Z,41.29
2018-05-08T02:09:45.195Z,41.38
2018-05-08T02:12:12.865Z,41.49
2018-05-08T02:14:40.393Z,41.56
2018-05-08T02:17:07.962Z,41.70
2018-05-08T02:19:35.535Z,41.46
2018-05-08T02:22:03.126Z,41.41
2018-05-08T02:24:30.678Z,41.53
2018-05-08T02:26:58.252Z,41.66
2018-05-08T02:29:25.813Z,41.66
2018-05-08T02:31:53.369Z,41.66
2018-05-08T02:34:20.933Z,41.84
2018-05-08T02:36:48.602Z,41.96
2018-05-08T02:39:16.153Z,41.93
2018-05-08T02:41:43.767Z,41.86
2018-05-08T02:44:11.328Z,42.11
2018-05-08T02:46:38.883Z,42.23
2018-05-08T02:49:06.417Z,42.18
2018-05-08T02:51:34.075Z,42.13
2018-05-08T02:54:01.675Z,42.08
2018-05-08T02:56:29.235Z,42.29
2018-05-08T02:58:56.817Z,42.40
2018-05-08T03:01:24.387Z,42.48
2018-05-08T03:03:51.934Z,42.38
2018-05-08T03:06:19.504Z,42.41
2018-05-08T03:08:47.078Z,42.41
2018-05-08T03:11:14.638Z,42.52
2018-05-08T03:13:42.199Z,42.44
2018-05-08T03:16:09.812Z,42.53
2018-05-08T03:18:37.384Z,42.46
2018-05-08T03:21:04.947Z,42.68
2018-05-08T03:23:32.492Z,42.61
2018-05-08T03:26:00.089Z,42.81
2018-05-08T03:28:27.652Z,42.83
2018-05-08T03:30:55.208Z,42.81
2018-05-08T03:33:22.767Z,42.83
2018-05-08T03:35:50.321Z,42.84
2018-05-08T03:38:17.891Z,42.88
2018-05-08T03:40:45.435Z,43.06
2018-05-08T03:43:12.969Z,43.00
2018-05-08T03:45:41.057Z,43.09
2018-05-08T03:48:08.641Z,43.12
2018-05-08T03:50:36.207Z,43.26
2018-05-08T03:53:03.803Z,43.36
2018-05-08T03:55:31.360Z,43.42
2018-05-08T03:57:59.013Z,43.40
2018-05-08T04:00:38.328Z,43.67
2018-05-08T04:09:35.102Z,43.59
2018-05-08T04:12:02.697Z,43.80
2018-05-08T04:14:30.414Z,43.85
2018-05-08T04:16:57.996Z,43.93
2018-05-08T04:19:25.658Z,43.83
2018-05-08T04:21:53.270Z,43.74
2018-05-08T04:24:20.853Z,43.88
2018-05-08T04:26:48.442Z,43.89
2018-05-08T04:29:16.064Z,43.80
2018-05-08T04:31:43.623Z,43.71
2018-05-08T04:34:11.197Z,43.88
2018-05-08T04:36:38.867Z,43.61
2018-05-08T04:39:07.188Z,43.72
2018-05-08T04:41:34.751Z,43.78
2018-05-08T04:44:02.327Z,43.65
2018-05-08T04:46:29.933Z,43.60
2018-05-08T04:48:57.535Z,43.33
2018-05-08T04:51:25.121Z,43.45
2018-05-08T04:53:52.731Z,43.69
2018-05-08T04:56:20.266Z,43.17
2018-05-08T04:58:48.170Z,42.83
2018-05-08T05:01:16.145Z,42.75
2018-05-08T05:03:44.209Z,42.72
2018-05-08T05:06:12.655Z,42.70
2018-05-08T05:08:40.227Z,42.45
2018-05-08T05:11:07.846Z,42.61
2018-05-08T05:13:35.341Z,42.32
2018-05-08T05:16:02.872Z,42.15
2018-05-08T05:18:30.568Z,42.04
2018-05-08T05:20:58.133Z,42.09
2018-05-08T05:23:25.706Z,42.00
2018-05-08T05:25:53.245Z,41.94
2018-05-08T05:28:20.802Z,41.68
2018-05-08T05:30:48.353Z,41.42
2018-05-08T05:33:15.957Z,41.18
2018-05-08T05:35:43.577Z,41.07
2018-05-08T05:38:11.217Z,40.83
2018-05-08T05:40:38.776Z,40.35
2018-05-08T05:43:06.352Z,40.14
2018-05-08T05:45:33.896Z,39.99
2018-05-08T05:48:01.660Z,39.77
2018-05-08T05:50:29.274Z,39.24
2018-05-08T05:52:56.940Z,38.67
2018-05-08T05:55:24.530Z,38.21
2018-05-08T05:57:52.092Z,37.78
2018-05-08T06:00:19.647Z,36.81
2018-05-08T06:02:47.202Z,36.09
2018-05-08T06:07:46.981Z,33.63
2018-05-08T06:10:14.851Z,33.09
2018-05-08T06:12:42.398Z,30.46
2018-05-08T06:15:10.289Z,30.00
2018-05-08T06:17:38.210Z,28.11
2018-05-08T06:20:05.923Z,26.88
2018-05-08T06:22:33.456Z,25.87
2018-05-08T06:25:01.020Z,25.82
2018-05-08T06:27:28.631Z,25.37
2018-05-08T06:29:56.324Z,25.35
2018-05-08T06:32:23.980Z,25.22
2018-05-08T06:34:51.598Z,24.35
2018-05-08T06:37:19.209Z,23.57
2018-05-08T06:39:47.548Z,23.53
2018-05-08T06:42:15.103Z,24.13
2018-05-08T06:44:42.657Z,22.85
2018-05-08T06:47:10.237Z,21.49
2018-05-08T06:49:38.220Z,20.98
2018-05-08T06:52:05.798Z,22.88
2018-05-08T06:54:33.428Z,21.36
2018-05-08T06:57:01.054Z,20.57
2018-05-08T06:59:28.756Z,20.01
2018-05-08T07:01:56.490Z,19.47
2018-05-08T07:04:24.118Z,18.86
2018-05-08T07:06:51.791Z,19.42
2018-05-08T07:09:19.532Z,19.10
2018-05-08T07:11:47.173Z,19.34
2018-05-08T07:14:14.789Z,18.90
2018-05-08T07:16:43.025Z,19.53
2018-05-08T07:19:10.581Z,18.73
2018-05-08T07:21:38.287Z,18.88
2018-05-08T07:24:05.920Z,18.93
2018-05-08T07:26:33.589Z,17.58
2018-05-08T07:29:01.427Z,16.98
2018-05-08T07:31:29.049Z,16.42
2018-05-08T07:33:56.680Z,16.42
2018-05-08T07:36:24.322Z,16.24
2018-05-08T07:38:52.017Z,16.23
2018-05-08T07:41:19.680Z,16.23
2018-05-08T07:43:47.353Z,16.42
2018-05-08T07:46:15.169Z,17.29
2018-05-08T07:48:42.835Z,16.33
2018-05-08T07:51:10.610Z,15.75
2018-05-08T07:53:38.255Z,15.29
2018-05-08T07:56:05.818Z,15.45
2018-05-08T07:58:33.346Z,15.06
2018-05-08T08:01:00.933Z,14.82
2018-05-08T08:03:28.482Z,15.32
2018-05-08T08:05:56.072Z,15.16
2018-05-08T08:08:23.671Z,14.71
2018-05-08T08:10:51.225Z,14.44
2018-05-08T08:13:18.831Z,14.46
2018-05-08T08:15:46.425Z,13.92
2018-05-08T08:18:13.958Z,13.96
2018-05-08T08:20:41.584Z,13.92
2018-05-08T08:23:09.201Z,13.71
2018-05-08T08:25:36.802Z,13.44
2018-05-08T08:28:04.359Z,13.50
2018-05-08T08:30:32.105Z,13.17
2018-05-08T08:32:59.792Z,12.84
2018-05-08T08:35:27.372Z,12.70
2018-05-08T08:37:54.948Z,12.33
2018-05-08T08:40:22.638Z,12.62
2018-05-08T08:42:50.259Z,11.92
2018-05-08T08:45:17.817Z,12.14
2018-05-08T08:47:46.510Z,12.04
2018-05-08T08:50:13.996Z,11.46
2018-05-08T08:52:41.613Z,10.87
2018-05-08T08:55:09.136Z,10.57
2018-05-08T08:57:36.781Z,11.13
2018-05-08T09:00:04.557Z,10.87
2018-05-08T09:02:32.168Z,10.93
2018-05-08T09:04:59.701Z,11.05
2018-05-08T09:07:27.278Z,11.04
2018-05-08T09:09:54.824Z,10.90
2018-05-08T09:12:22.382Z,11.00
2018-05-08T09:14:49.932Z,10.69
2018-05-08T09:17:17.491Z,10.57
2018-05-08T09:19:45.133Z,10.28
2018-05-08T09:22:12.713Z,9.79
2018-05-08T09:24:40.245Z,9.85
2018-05-08T09:27:07.791Z,9.45
2018-05-08T09:29:35.376Z,9.76
2018-05-08T09:32:02.938Z,9.66
2018-05-08T09:34:30.465Z,9.50
2018-05-08T09:36:58.060Z,9.00
2018-05-08T09:39:26.334Z,9.22
2018-05-08T09:41:53.890Z,9.26
2018-05-08T09:44:21.443Z,9.18
2018-05-08T09:46:48.980Z,9.13
2018-05-08T09:49:16.499Z,9.29
2018-05-08T09:51:44.050Z,9.03
2018-05-08T09:54:11.682Z,8.88
2018-05-08T09:56:39.241Z,9.17
2018-05-08T09:59:06.786Z,9.01
2018-05-08T10:01:34.424Z,8.57
2018-05-08T10:04:01.975Z,8.05
2018-05-08T10:06:29.572Z,8.08
2018-05-08T10:08:57.159Z,8.45
2018-05-08T10:11:24.795Z,7.97
2018-05-08T10:13:52.410Z,8.16
2018-05-08T10:16:20.002Z,8.25
2018-05-08T10:18:47.573Z,8.13
2018-05-08T10:21:15.094Z,7.96
2018-05-08T10:23:42.670Z,8.16
2018-05-08T10:26:10.234Z,8.19
2018-05-08T10:28:37.778Z,8.05
2018-05-08T10:31:05.327Z,8.00
2018-05-08T10:33:32.903Z,7.81
2018-05-08T10:36:00.542Z,7.30
2018-05-08T10:38:28.241Z,7.10
2018-05-08T10:40:55.814Z,6.91
2018-05-08T10:43:24.340Z,6.67
2018-05-08T10:45:51.898Z,6.45
2018-05-08T10:48:20.259Z,6.31
2018-05-08T10:50:47.858Z,6.50
2018-05-08T10:53:15.409Z,6.56
2018-05-08T10:55:43.025Z,6.50
2018-05-08T10:58:10.667Z,6.71
2018-05-08T11:00:38.212Z,6.25
2018-05-08T11:03:05.782Z,6.12
2018-05-08T11:05:33.334Z,5.73
2018-05-08T11:08:00.921Z,5.58
2018-05-08T11:10:28.551Z,5.81
2018-05-08T11:12:56.111Z,5.97
2018-05-08T11:15:23.613Z,6.33
2018-05-08T11:17:51.135Z,6.54
2018-05-08T11:20:18.701Z,6.80
2018-05-08T11:22:46.256Z,6.92
2018-05-08T11:25:13.796Z,6.97
2018-05-08T11:27:41.378Z,7.37
2018-05-08T11:30:08.955Z,7.67
2018-05-08T11:32:36.741Z,8.08
2018-05-08T11:35:05.157Z,8.55
2018-05-08T11:37:33.028Z,9.39
2018-05-08T11:40:00.629Z,10.36
2018-05-08T11:42:28.164Z,10.94
2018-05-08T11:44:55.724Z,11.28
2018-05-08T11:47:23.283Z,12.12
2018-05-08T11:49:50.908Z,12.96
2018-05-08T11:52:18.480Z,13.09
2018-05-08T11:54:46.069Z,13.49
2018-05-08T11:57:13.603Z,13.83
2018-05-08T11:59:41.192Z,14.14
2018-05-08T12:02:08.853Z,14.72
2018-05-08T12:04:36.419Z,14.89
2018-05-08T12:07:04.045Z,15.43
2018-05-08T12:09:31.647Z,15.33
2018-05-08T12:11:59.192Z,15.17
2018-05-08T12:14:26.951Z,15.18
2018-05-08T12:16:54.548Z,13.35
2018-05-08T12:19:22.107Z,14.08
2018-05-08T12:21:49.722Z,14.24
2018-05-08T12:24:18.133Z,14.60
2018-05-08T12:26:45.725Z,14.81
2018-05-08T12:29:13.282Z,14.97
2018-05-08T12:31:40.913Z,15.04
2018-05-08T12:34:08.528Z,15.41
2018-05-08T12:36:36.080Z,15.27
2018-05-08T12:39:03.680Z,15.08
2018-05-08T12:41:31.257Z,14.84
2018-05-08T12:43:58.844Z,14.40
2018-05-08T12:46:26.395Z,14.46
2018-05-08T12:48:53.981Z,14.68
2018-05-08T12:51:21.507Z,14.78
2018-05-08T12:53:49.785Z,14.55
2018-05-08T12:56:17.413Z,14.08
2018-05-08T12:58:44.951Z,14.17
2018-05-08T13:01:12.506Z,14.20
2018-05-08T13:03:40.039Z,14.04
2018-05-08T13:06:07.591Z,14.15
2018-05-08T13:08:35.116Z,14.12
2018-05-08T13:11:02.808Z,13.96
2018-05-08T13:13:30.278Z,14.11
2018-05-08T13:15:57.845Z,14.25
2018-05-08T13:18:25.549Z,14.14
2018-05-08T13:20:56.585Z,14.14
2018-05-08T13:23:24.147Z,14.17
2018-05-08T13:25:51.747Z,14.38
2018-05-08T13:28:19.380Z,14.41
2018-05-08T13:30:46.937Z,14.46
2018-05-08T13:33:14.468Z,14.55
2018-05-08T13:35:42.038Z,13.89
2018-05-08T13:38:09.657Z,14.24
2018-05-08T13:40:37.319Z,14.39
2018-05-08T13:43:04.796Z,13.63
2018-05-08T13:45:32.369Z,13.89
2018-05-08T13:47:59.984Z,13.96
2018-05-08T13:50:27.511Z,14.05
2018-05-08T13:52:55.065Z,13.97
2018-05-08T13:55:22.663Z,14.12
2018-05-08T13:57:50.230Z,14.11
2018-05-08T14:00:17.763Z,13.95
2018-05-08T14:02:45.386Z,13.82
2018-05-08T14:05:12.920Z,13.50
2018-05-08T14:07:40.454Z,13.79
2018-05-08T14:10:08.046Z,13.49
2018-05-08T14:12:35.663Z,13.23
2018-05-08T14:15:03.251Z,13.02
2018-05-08T14:17:30.800Z,13.21
2018-05-08T14:19:58.352Z,13.31
2018-05-08T14:22:25.956Z,13.10
2018-05-08T14:24:53.603Z,13.19
2018-05-08T14:27:21.238Z,13.24
2018-05-08T14:29:48.855Z,13.17
2018-05-08T14:32:16.446Z,13.38
2018-05-08T14:34:44.015Z,13.60
2018-05-08T14:37:11.652Z,13.74
2018-05-08T14:39:39.217Z,13.94
2018-05-08T14:42:06.790Z,14.01
2018-05-08T14:44:34.386Z,14.18
2018-05-08T14:47:01.950Z,14.45
2018-05-08T14:49:29.517Z,14.74
2018-05-08T14:51:57.085Z,14.79
2018-05-08T14:54:24.618Z,14.75
2018-05-08T14:56:52.175Z,14.46
2018-05-08T14:59:19.762Z,14.00
2018-05-08T15:01:47.381Z,14.00
2018-05-08T15:04:14.986Z,14.12
2018-05-08T15:06:42.575Z,13.88
2018-05-08T15:09:10.129Z,14.28
2018-05-08T15:11:37.692Z,14.44
2018-05-08T15:14:05.510Z,14.00
2018-05-08T15:16:33.147Z,13.80
2018-05-08T15:19:00.682Z,14.05
2018-05-08T15:21:28.357Z,14.34
2018-05-08T15:23:55.997Z,14.47
2018-05-08T15:26:23.600Z,14.62
2018-05-08T15:28:51.196Z,14.58
2018-05-08T15:31:18.806Z,14.65
2018-05-08T15:33:46.378Z,14.79
2018-05-08T15:36:13.941Z,14.75
2018-05-08T15:38:41.542Z,14.26
2018-05-08T15:41:09.213Z,14.32
2018-05-08T15:43:36.698Z,14.28
2018-05-08T15:46:04.260Z,14.38
2018-05-08T15:48:31.825Z,14.06
2018-05-08T15:50:59.588Z,14.12
2018-05-08T15:53:27.266Z,14.64
2018-05-08T15:55:54.839Z,14.86
2018-05-08T15:58:22.526Z,14.94
2018-05-08T16:00:50.063Z,14.60
2018-05-08T16:03:17.621Z,14.75
2018-05-08T16:05:45.195Z,14.80
2018-05-08T16:08:12.735Z,14.97
2018-05-08T16:10:40.300Z,15.11
2018-05-08T16:13:07.884Z,15.02
2018-05-08T16:15:35.476Z,14.90
2018-05-08T16:18:04.196Z,14.98
2018-05-08T16:20:31.764Z,14.76
2018-05-08T16:22:59.347Z,14.80
2018-05-08T16:25:26.936Z,15.13
2018-05-08T16:27:54.589Z,15.12
2018-05-08T16:30:22.220Z,15.27
2018-05-08T16:32:49.775Z,14.89
2018-05-08T16:35:17.345Z,15.05
2018-05-08T16:37:44.967Z,15.26
2018-05-08T16:40:12.551Z,15.49
2018-05-08T16:42:40.363Z,15.55
2018-05-08T16:45:07.984Z,15.68
2018-05-08T16:47:35.569Z,15.88
2018-05-08T16:50:03.309Z,16.25
2018-05-08T16:52:30.879Z,16.27
2018-05-08T16:54:58.458Z,16.19
2018-05-08T16:57:26.023Z,16.40
2018-05-08T16:59:54.072Z,16.43
2018-05-08T17:02:21.637Z,16.51
2018-05-08T17:04:49.234Z,16.48
2018-05-08T17:07:16.799Z,16.45
2018-05-08T17:09:44.381Z,16.54
2018-05-08T17:12:12.004Z,16.48
2018-05-08T17:14:39.571Z,16.47
2018-05-08T17:17:07.129Z,16.64
2018-05-08T17:19:34.778Z,16.51
2018-05-08T17:22:02.311Z,16.90
2018-05-08T17:24:29.959Z,16.93
2018-05-08T17:26:57.493Z,17.17
2018-05-08T17:29:25.082Z,17.72
2018-05-08T17:31:52.644Z,17.56
2018-05-08T17:34:20.234Z,17.51
2018-05-08T17:36:47.777Z,17.43
2018-05-08T17:39:15.341Z,17.46
2018-05-08T17:41:42.889Z,17.50
2018-05-08T17:44:10.465Z,17.60
2018-05-08T17:46:38.129Z,17.81
2018-05-08T17:49:05.753Z,17.69
2018-05-08T17:51:33.329Z,18.02
2018-05-08T17:54:00.896Z,18.35
2018-05-08T17:56:28.557Z,18.41
2018-05-08T17:58:56.175Z,18.33
2018-05-08T18:01:23.712Z,18.31
2018-05-08T18:03:51.261Z,18.41
2018-05-08T18:06:18.833Z,18.57
2018-05-08T18:08:46.417Z,18.73
2018-05-08T18:11:13.957Z,18.70
2018-05-08T18:13:41.525Z,18.85
2018-05-08T18:16:09.120Z,18.86
2018-05-08T18:18:38.350Z,19.38
2018-05-08T18:21:05.940Z,19.31
2018-05-08T18:23:33.556Z,19.52
2018-05-08T18:26:01.941Z,19.77
2018-05-08T18:28:30.088Z,20.21
2018-05-08T18:30:58.295Z,20.45
2018-05-08T18:33:26.432Z,20.96
2018-05-08T18:35:54.058Z,21.15
2018-05-08T18:38:21.704Z,21.23
2018-05-08T18:40:49.361Z,21.42
2018-05-08T18:43:16.959Z,21.57
2018-05-08T18:45:44.498Z,21.82
2018-05-08T18:48:12.073Z,22.10
2018-05-08T18:50:39.697Z,22.41
2018-05-08T18:53:08.957Z,22.83
2018-05-08T18:55:36.584Z,22.96
2018-05-08T18:58:04.148Z,23.14
2018-05-08T19:00:37.429Z,23.37
2018-05-08T19:03:05.041Z,23.62
2018-05-08T19:05:32.716Z,23.87
2018-05-08T19:08:00.407Z,24.15
2018-05-08T19:10:28.092Z,24.19
2018-05-08T19:12:55.946Z,24.37
2018-05-08T19:15:29.162Z,24.56
2018-05-08T19:17:56.873Z,24.53
2018-05-08T19:20:24.599Z,24.69
2018-05-08T19:22:52.279Z,24.90
2018-05-08T19:25:19.943Z,25.09
2018-05-08T19:27:48.498Z,25.42
2018-05-08T19:30:21.466Z,25.51
2018-05-08T19:32:49.056Z,25.85
2018-05-08T19:35:22.108Z,25.60
2018-05-08T19:37:55.124Z,25.71
2018-05-08T19:40:22.844Z,25.85
2018-05-08T19:42:50.448Z,25.83
2018-05-08T19:45:18.078Z,26.14
2018-05-08T19:47:46.148Z,26.37
2018-05-08T19:50:13.712Z,26.53
2018-05-08T19:52:41.256Z,26.27
2018-05-08T19:55:08.835Z,26.48
2018-05-08T19:57:36.367Z,26.78
2018-05-08T20:00:03.989Z,26.97
2018-05-08T20:02:31.584Z,27.34
2018-05-08T20:04:59.176Z,27.51
2018-05-08T20:07:26.723Z,27.50
2018-05-08T20:09:54.311Z,27.45
2018-05-08T20:12:21.860Z,27.40
2018-05-08T20:14:49.428Z,27.65
2018-05-08T20:17:17.015Z,27.59
2018-05-08T20:19:44.591Z,27.85
2018-05-08T20:22:12.169Z,27.96
2018-05-08T20:24:39.789Z,28.30
2018-05-08T20:27:07.371Z,28.35
2018-05-08T20:29:34.949Z,28.55
2018-05-08T20:32:02.522Z,28.53
2018-05-08T20:34:30.166Z,28.86
2018-05-08T20:36:57.749Z,28.58
2018-05-08T20:39:25.393Z,28.99
2018-05-08T20:41:52.967Z,29.24
2018-05-08T20:44:20.553Z,28.96
2018-05-08T20:46:48.117Z,29.14
2018-05-08T20:49:15.737Z,29.46
2018-05-08T20:51:43.519Z,29.68
2018-05-08T20:54:11.036Z,29.86
2018-05-08T20:56:38.601Z,30.20
2018-05-08T20:59:06.229Z,30.51
2018-05-08T21:01:33.816Z,30.82
2018-05-08T21:04:02.581Z,31.03
2018-05-08T21:06:30.143Z,31.38
2018-05-08T21:08:57.703Z,31.12
2018-05-08T21:11:25.288Z,31.08
2018-05-08T21:13:52.869Z,31.33
2018-05-08T21:16:20.438Z,31.67
2018-05-08T21:18:48.007Z,31.75
2018-05-08T21:21:15.583Z,32.09
2018-05-08T21:23:43.133Z,32.39
2018-05-08T21:26:10.720Z,32.67
2018-05-08T21:28:43.921Z,32.86
2018-05-08T21:31:14.284Z,33.03
2018-05-08T21:33:41.897Z,33.18
2018-05-08T21:36:09.510Z,33.32
2018-05-08T21:38:37.060Z,33.59
2018-05-08T21:41:04.673Z,33.48
2018-05-08T21:43:32.268Z,33.71
2018-05-08T21:45:59.907Z,33.54
2018-05-08T21:48:27.486Z,33.31
2018-05-08T21:50:55.096Z,33.50
2018-05-08T21:53:22.646Z,33.88
2018-05-08T21:55:50.209Z,34.02
2018-05-08T21:58:17.753Z,33.98
2018-05-08T22:00:45.327Z,34.39
2018-05-08T22:03:14.122Z,34.45
2018-05-08T22:05:41.649Z,34.92
2018-05-08T22:08:09.220Z,34.94
2018-05-08T22:10:36.789Z,34.95
2018-05-08T22:13:04.358Z,35.09
2018-05-08T22:15:31.877Z,35.25
2018-05-08T22:17:59.457Z,35.38
2018-05-08T22:20:27.039Z,35.36
2018-05-08T22:22:54.664Z,35.42
2018-05-08T22:25:22.246Z,35.33
2018-05-08T22:27:49.917Z,35.17
2018-05-08T22:30:17.495Z,34.75
2018-05-08T22:32:45.093Z,34.51
2018-05-08T22:35:12.732Z,34.44
2018-05-08T22:37:40.340Z,34.09
2018-05-08T22:40:08.845Z,33.87
2018-05-08T22:42:36.427Z,33.67
2018-05-08T22:45:04.057Z,33.52
2018-05-08T22:47:31.617Z,33.49
2018-05-08T22:49:59.279Z,33.39
2018-05-08T22:52:26.839Z,33.31
2018-05-08T22:54:54.407Z,33.20
2018-05-08T22:57:22.027Z,33.13
2018-05-08T22:59:49.624Z,33.18
2018-05-08T23:02:17.179Z,33.17
2018-05-08T23:04:44.718Z,33.22
2018-05-08T23:07:12.301Z,33.17
2018-05-08T23:09:39.837Z,33.22
2018-05-08T23:12:07.392Z,33.25
2018-05-08T23:14:34.946Z,33.29
2018-05-08T23:17:02.519Z,33.46
2018-05-08T23:19:30.076Z,33.46
2018-05-08T23:21:57.622Z,33.69
2018-05-08T23:24:25.190Z,33.86
2018-05-08T23:26:52.734Z,34.00
2018-05-08T23:29:20.283Z,34.15
2018-05-08T23:31:47.879Z,34.29
2018-05-08T23:34:15.464Z,34.52
2018-05-08T23:36:43.027Z,34.57
2018-05-08T23:39:10.604Z,34.72
2018-05-08T23:41:38.172Z,34.89
2018-05-08T23:44:05.798Z,35.13
2018-05-08T23:46:33.371Z,35.21
2018-05-08T23:49:01.032Z,35.42
2018-05-08T23:51:28.683Z,35.65
2018-05-08T23:53:56.292Z,35.90
2018-05-08T23:56:23.898Z,36.12
2018-05-08T23:58:51.576Z,36.23
